createdAt,value
2023-02-12T00:01:01.513Z,58.22
2023-02-12T00:04:06.378Z,54.30
2023-02-12T00:07:10.776Z,32.23
2023-02-12T00:10:19.378Z,41.47
2023-02-12T00:13:24.952Z,29.35
2023-02-12T00:16:32.093Z,51.58
2023-02-12T00:19:39.636Z,66.55
2023-02-12T00:22:47.296Z,58.72
2023-02-12T00:25:54.571Z,50.92
2023-02-12T00:28:58.833Z,36.88
2023-02-12T00:32:05.742Z,33.47
2023-02-12T00:35:10.137Z,21.30
2023-02-12T00:38:14.963Z,36.00
2023-02-12T00:41:22.937Z,38.33
2023-02-12T00:44:27.386Z,54.60
2023-02-12T00:47:34.913Z,70.05
2023-02-12T00:50:39.455Z,44.85
2023-02-12T00:53:46.684Z,22.77
2023-02-12T00:56:56.341Z,21.50
2023-02-12T01:00:05.871Z,16.33
2023-02-12T01:03:10.316Z,21.80
2023-02-12T01:06:18.428Z,28.20
2023-02-12T01:09:23.961Z,23.00
2023-02-12T01:12:30.412Z,17.00
2023-02-12T01:15:34.608Z,15.13
2023-02-12T01:18:41.827Z,20.77
2023-02-12T01:21:48.203Z,15.00
2023-02-12T01:24:53.010Z,25.63
2023-02-12T01:28:02.981Z,23.77
2023-02-12T01:31:21.919Z,26.95
2023-02-12T01:34:36.688Z,35.50
2023-02-12T01:37:43.757Z,63.28
2023-02-12T01:40:53.945Z,98.03
2023-02-12T01:44:14.665Z,20.63
2023-02-12T01:51:22.424Z,15.38
2023-02-12T01:59:57.258Z,20.50
2023-02-12T02:03:59.344Z,22.70
2023-02-12T02:12:15.147Z,124.65
2023-02-12T02:15:34.353Z,49.83
2023-02-12T02:19:07.809Z,20.67
2023-02-12T02:22:23.869Z,17.27
2023-02-12T02:25:51.855Z,27.48
2023-02-12T02:29:46.397Z,18.73
2023-02-12T02:33:18.128Z,25.50
2023-02-12T02:36:58.312Z,54.35
2023-02-12T02:40:35.957Z,25.70
2023-02-12T02:44:04.434Z,18.25
2023-02-12T02:47:13.862Z,127.72
2023-02-12T02:50:21.475Z,17.40
2023-02-12T02:53:33.723Z,23.10
2023-02-12T02:56:42.109Z,28.55
2023-02-12T02:59:55.519Z,18.48
2023-02-12T03:03:07.733Z,17.33
2023-02-12T03:06:21.172Z,19.55
2023-02-12T03:09:33.944Z,25.08
2023-02-12T03:13:07.085Z,18.25
2023-02-12T03:16:28.340Z,18.70
2023-02-12T03:19:43.748Z,18.52
2023-02-12T03:22:54.467Z,24.83
2023-02-12T03:26:21.687Z,29.05
2023-02-12T03:29:27.959Z,21.60
2023-02-12T03:32:47.602Z,19.80
2023-02-12T03:36:09.133Z,18.63
2023-02-12T03:39:26.516Z,27.50
2023-02-12T03:42:49.918Z,20.17
2023-02-12T03:46:18.190Z,23.02
2023-02-12T03:49:32.664Z,27.13
2023-02-12T03:53:02.080Z,21.35
2023-02-12T03:56:13.941Z,20.10
2023-02-12T03:59:20.283Z,23.70
2023-02-12T04:02:25.082Z,19.38
2023-02-12T04:05:29.732Z,53.63
2023-02-12T04:08:34.425Z,21.00
2023-02-12T04:12:07.345Z,18.63
2023-02-12T04:15:30.324Z,31.50
2023-02-12T04:18:52.481Z,28.50
2023-02-12T04:22:11.643Z,47.00
2023-02-12T04:25:18.155Z,26.58
2023-02-12T04:28:37.602Z,25.80
2023-02-12T04:31:55.957Z,276.92
2023-02-12T04:35:25.060Z,70.70
2023-02-12T04:38:46.082Z,39.28
2023-02-12T04:42:06.395Z,31.13
2023-02-12T04:45:15.580Z,24.70
2023-02-12T04:48:19.768Z,43.05
2023-02-12T04:51:24.277Z,33.70
2023-02-12T04:54:28.429Z,33.63
2023-02-12T04:57:32.621Z,82.25
2023-02-12T05:00:36.756Z,34.97
2023-02-12T05:03:41.074Z,20.52
2023-02-12T05:06:46.398Z,27.55
2023-02-12T05:09:50.150Z,31.00
2023-02-12T05:12:55.244Z,47.78
2023-02-12T05:15:59.779Z,35.70
2023-02-12T05:19:04.373Z,25.60
2023-02-12T05:22:08.801Z,28.38
2023-02-12T05:25:12.937Z,29.00
2023-02-12T05:28:17.052Z,27.83
2023-02-12T05:31:24.432Z,18.35
2023-02-12T05:34:28.433Z,45.63
2023-02-12T05:37:35.749Z,23.70
2023-02-12T05:40:41.133Z,22.23
2023-02-12T05:43:49.161Z,29.92
2023-02-12T05:46:53.542Z,19.60
2023-02-12T05:49:57.658Z,50.08
2023-02-12T05:53:02.548Z,26.90
2023-02-12T05:56:25.594Z,35.53
2023-02-12T05:59:30.211Z,17.10
2023-02-12T06:02:38.028Z,68.80
2023-02-12T06:05:42.452Z,117.82
2023-02-12T06:08:50.114Z,44.28
2023-02-12T06:11:54.109Z,89.05
2023-02-12T06:14:58.440Z,39.97
2023-02-12T06:18:02.494Z,26.45
2023-02-12T06:21:07.086Z,45.83
2023-02-12T06:24:16.578Z,20.90
2023-02-12T06:27:21.570Z,18.70
2023-02-12T06:30:26.199Z,110.38
2023-02-12T06:33:30.948Z,172.35
2023-02-12T06:36:35.778Z,59.00
2023-02-12T06:39:40.220Z,27.53
2023-02-12T06:42:44.566Z,137.85
2023-02-12T06:45:49.010Z,45.47
2023-02-12T06:48:57.831Z,166.00
2023-02-12T06:52:03.420Z,90.70
2023-02-12T06:55:08.148Z,100.05
2023-02-12T06:58:12.042Z,55.53
2023-02-12T07:05:07.697Z,220.77
2023-02-12T07:11:17.303Z,78.57
2023-02-12T07:14:21.572Z,297.70
2023-02-12T07:17:26.086Z,68.47
2023-02-12T07:20:30.368Z,43.13
2023-02-12T07:23:35.921Z,28.67
2023-02-12T07:29:47.831Z,63.28
2023-02-12T07:32:52.187Z,62.47
2023-02-12T07:35:56.904Z,50.88
2023-02-12T07:39:02.530Z,41.42
2023-02-12T07:42:07.176Z,32.50
2023-02-12T07:45:11.990Z,47.75
2023-02-12T07:48:16.279Z,306.70
2023-02-12T07:51:21.019Z,180.70
2023-02-12T07:54:28.229Z,234.27
2023-02-12T07:57:32.625Z,122.22
2023-02-12T08:00:37.038Z,110.05
2023-02-12T08:03:41.981Z,48.58
2023-02-12T08:06:49.327Z,80.72
2023-02-12T08:09:54.384Z,48.05
2023-02-12T08:12:58.759Z,43.08
2023-02-12T08:16:11.752Z,35.08
2023-02-12T08:19:20.476Z,19.55
2023-02-12T08:22:25.364Z,19.60
2023-02-12T08:25:29.820Z,21.23
2023-02-12T08:28:33.920Z,24.98
2023-02-12T08:31:42.263Z,15.90
2023-02-12T08:34:46.261Z,20.92
2023-02-12T08:37:50.342Z,35.00
2023-02-12T08:40:54.817Z,69.82
2023-02-12T08:44:01.049Z,33.25
2023-02-12T08:47:07.567Z,34.47
2023-02-12T08:50:12.350Z,29.80
2023-02-12T08:53:16.328Z,24.10
2023-02-12T08:56:21.140Z,28.77
2023-02-12T08:59:25.641Z,35.53
2023-02-12T09:02:29.972Z,35.05
2023-02-12T09:05:34.754Z,85.53
2023-02-12T09:08:40.569Z,59.05
2023-02-12T09:11:45.593Z,70.30
2023-02-12T09:14:51.496Z,76.10
2023-02-12T09:17:56.845Z,61.90
2023-02-12T09:21:16.847Z,108.97
2023-02-12T09:24:21.379Z,64.55
2023-02-12T09:27:25.868Z,56.85
2023-02-12T09:30:31.156Z,55.47
2023-02-12T09:33:35.873Z,59.63
2023-02-12T09:36:40.431Z,64.50
2023-02-12T09:39:46.070Z,59.65
2023-02-12T09:43:21.302Z,63.40
2023-02-12T09:46:35.009Z,147.05
2023-02-12T09:50:14.482Z,125.45
2023-02-12T09:53:22.874Z,71.68
2023-02-12T09:56:29.401Z,80.65
2023-02-12T09:59:44.573Z,115.30
2023-02-12T10:02:54.101Z,76.53
2023-02-12T10:06:08.825Z,68.75
2023-02-12T10:09:33.377Z,71.95
2023-02-12T10:12:50.254Z,69.47
2023-02-12T10:16:01.961Z,71.50
2023-02-12T10:19:33.114Z,90.63
2023-02-12T10:22:56.027Z,115.82
2023-02-12T10:26:16.024Z,105.28
2023-02-12T10:29:31.637Z,69.93
2023-02-12T10:32:37.775Z,42.35
2023-02-12T10:35:50.765Z,55.28
2023-02-12T10:39:05.974Z,40.80
2023-02-12T10:42:17.550Z,42.45
2023-02-12T10:45:30.139Z,44.35
2023-02-12T10:48:40.140Z,47.20
2023-02-12T10:51:53.724Z,50.17
2023-02-12T10:54:58.002Z,53.13
2023-02-12T10:58:04.365Z,126.15
2023-02-12T11:01:31.883Z,159.43
2023-02-12T11:04:36.610Z,282.98
2023-02-12T11:07:50.282Z,249.23
2023-02-12T11:10:59.024Z,131.45
2023-02-12T11:14:17.509Z,146.63
2023-02-12T11:17:30.682Z,124.95
2023-02-12T11:21:02.426Z,140.60
2023-02-12T11:24:32.970Z,118.38
2023-02-12T11:27:41.087Z,120.15
2023-02-12T11:30:58.610Z,135.57
2023-02-12T11:37:21.071Z,162.23
2023-02-12T11:40:36.590Z,362.40
2023-02-12T11:43:41.968Z,444.65
2023-02-12T11:47:10.162Z,207.13
2023-02-12T11:50:23.243Z,190.77
2023-02-12T11:53:50.236Z,192.57
2023-02-12T11:56:56.275Z,190.00
2023-02-12T12:00:03.633Z,150.20
2023-02-12T12:03:26.579Z,199.32
2023-02-12T12:06:47.777Z,270.73
2023-02-12T12:10:01.563Z,186.77
2023-02-12T12:13:26.061Z,273.47
2023-02-12T12:17:09.302Z,264.20
2023-02-12T12:20:25.065Z,259.40
2023-02-12T12:27:01.209Z,131.68
2023-02-12T12:30:12.420Z,122.68
2023-02-12T12:33:38.038Z,100.38
2023-02-12T12:37:21.047Z,180.95
2023-02-12T12:40:52.072Z,158.05
2023-02-12T12:44:23.520Z,240.30
2023-02-12T12:47:36.868Z,284.70
2023-02-12T12:50:47.144Z,304.25
2023-02-12T12:54:33.831Z,198.57
2023-02-12T13:01:23.416Z,89.05
2023-02-12T13:04:55.725Z,124.45
2023-02-12T13:08:27.466Z,136.27
2023-02-12T13:11:42.630Z,146.38
2023-02-12T13:15:05.073Z,193.32
2023-02-12T13:18:22.086Z,106.35
2023-02-12T13:21:42.732Z,232.27
2023-02-12T13:24:55.957Z,204.27
2023-02-12T13:28:02.502Z,93.85
2023-02-12T13:31:31.789Z,89.43
2023-02-12T13:34:38.286Z,144.15
2023-02-12T13:37:46.279Z,168.82
2023-02-12T13:40:53.250Z,134.77
2023-02-12T13:44:33.542Z,78.80
2023-02-12T13:48:10.546Z,78.30
2023-02-12T13:51:30.649Z,162.27
2023-02-12T13:54:40.787Z,83.70
2023-02-12T13:57:45.110Z,115.95
2023-02-12T14:00:49.963Z,151.93
2023-02-12T14:03:56.739Z,74.95
2023-02-12T14:07:09.704Z,156.43
2023-02-12T14:10:33.076Z,126.95
2023-02-12T14:13:55.934Z,115.47
2023-02-12T14:17:33.023Z,119.18
2023-02-12T14:20:40.967Z,102.50
2023-02-12T14:23:50.848Z,106.72
2023-02-12T14:26:55.085Z,120.20
2023-02-12T14:30:11.497Z,109.30
2023-02-12T14:33:24.420Z,147.27
2023-02-12T14:36:39.671Z,112.22
2023-02-12T14:40:28.409Z,138.15
2023-02-12T14:43:58.993Z,136.57
2023-02-12T14:47:40.657Z,117.35
2023-02-12T14:50:51.365Z,123.57
2023-02-12T14:53:57.294Z,140.10
2023-02-12T14:57:06.902Z,169.00
2023-02-12T15:00:32.901Z,153.82
2023-02-12T15:06:54.072Z,112.40
2023-02-12T15:10:11.642Z,99.05
2023-02-12T15:13:31.067Z,50.58
2023-02-12T15:17:11.074Z,44.65
2023-02-12T15:20:26.633Z,46.55
2023-02-12T15:23:46.416Z,108.70
2023-02-12T15:26:56.637Z,52.08
2023-02-12T15:30:01.998Z,38.58
2023-02-12T15:33:09.074Z,29.60
2023-02-12T15:36:19.668Z,32.78
2023-02-12T15:39:26.314Z,53.97
2023-02-12T15:42:56.656Z,59.13
2023-02-12T15:46:09.874Z,57.85
2023-02-12T15:49:23.097Z,48.67
2023-02-12T15:52:35.573Z,57.00
2023-02-12T15:55:43.732Z,54.28
2023-02-12T15:58:51.401Z,70.78
2023-02-12T16:02:03.100Z,53.58
2023-02-12T16:05:08.618Z,56.03
2023-02-12T16:08:18.546Z,82.45
2023-02-12T16:11:24.563Z,80.72
2023-02-12T16:14:41.649Z,62.28
2023-02-12T16:17:49.100Z,59.42
2023-02-12T16:21:16.964Z,54.88
2023-02-12T16:24:28.300Z,85.28
2023-02-12T16:27:37.251Z,61.53
2023-02-12T16:30:44.110Z,145.18
2023-02-12T16:33:54.013Z,135.52
2023-02-12T16:36:58.463Z,88.05
2023-02-12T16:40:11.245Z,83.25
2023-02-12T16:43:28.045Z,66.03
2023-02-12T16:46:56.755Z,88.45
2023-02-12T16:50:03.402Z,75.28
2023-02-12T16:53:23.544Z,88.82
2023-02-12T16:56:35.016Z,120.85
2023-02-12T16:59:44.252Z,137.35
2023-02-12T17:02:51.898Z,135.85
2023-02-12T17:05:59.387Z,182.05
2023-02-12T17:09:07.143Z,126.40
2023-02-12T17:12:25.008Z,140.65
2023-02-12T17:15:39.128Z,103.10
2023-02-12T17:18:43.600Z,133.68
2023-02-12T17:21:50.292Z,103.22
2023-02-12T17:24:55.567Z,103.38
2023-02-12T17:28:02.457Z,103.30
2023-02-12T17:31:07.946Z,110.65
2023-02-12T17:34:19.836Z,127.22
2023-02-12T17:37:25.412Z,84.20
2023-02-12T17:40:30.241Z,87.38
2023-02-12T17:43:37.210Z,103.18
2023-02-12T17:46:46.191Z,68.78
2023-02-12T17:49:50.717Z,98.68
2023-02-12T17:52:54.947Z,226.75
2023-02-12T17:56:02.004Z,168.85
2023-02-12T17:59:06.253Z,182.52
2023-02-12T18:02:12.676Z,135.87
2023-02-12T18:05:17.337Z,158.60
2023-02-12T18:08:21.943Z,316.88
2023-02-12T18:11:26.724Z,379.77
2023-02-12T18:14:31.146Z,232.52
2023-02-12T18:17:39.096Z,280.55
2023-02-12T18:20:45.722Z,234.82
2023-02-12T18:23:50.228Z,369.73
2023-02-12T18:26:54.625Z,425.60
2023-02-12T18:29:59.470Z,211.27
2023-02-12T18:33:04.122Z,184.32
2023-02-12T18:36:17.856Z,149.30
2023-02-12T18:39:22.082Z,232.63
2023-02-12T18:42:27.027Z,390.17
2023-02-12T18:45:31.342Z,666.75
2023-02-12T18:48:35.872Z,623.30
2023-02-12T18:51:41.804Z,341.45
2023-02-12T18:55:19.363Z,285.05
2023-02-12T18:58:24.328Z,230.85
2023-02-12T19:04:34.123Z,172.82
2023-02-12T19:07:38.464Z,165.23
2023-02-12T19:10:43.322Z,155.15
2023-02-12T19:13:47.223Z,166.07
2023-02-12T19:16:52.127Z,149.00
2023-02-12T19:19:56.292Z,86.50
2023-02-12T19:23:00.701Z,85.13
2023-02-12T19:26:11.055Z,135.88
2023-02-12T19:29:15.235Z,123.88
2023-02-12T19:32:19.743Z,211.53
2023-02-12T19:35:23.552Z,246.52
2023-02-12T19:38:27.821Z,181.52
2023-02-12T19:41:33.658Z,126.53
2023-02-12T19:44:38.303Z,160.23
2023-02-12T19:47:42.948Z,159.98
2023-02-12T19:50:47.337Z,131.50
2023-02-12T19:53:51.500Z,114.93
2023-02-12T19:56:56.380Z,135.70
2023-02-12T20:00:00.763Z,125.40
2023-02-12T20:03:05.508Z,120.95
2023-02-12T20:06:14.270Z,126.00
2023-02-12T20:09:19.472Z,93.07
2023-02-12T20:12:23.794Z,118.93
2023-02-12T20:15:28.213Z,123.30
2023-02-12T20:18:32.566Z,88.38
2023-02-12T20:21:36.815Z,80.55
2023-02-12T20:24:40.957Z,60.73
2023-02-12T20:27:45.421Z,124.70
2023-02-12T20:30:49.830Z,156.77
2023-02-12T20:34:03.017Z,102.35
2023-02-12T20:37:07.845Z,94.53
2023-02-12T20:40:13.058Z,84.60
2023-02-12T20:43:17.438Z,74.50
2023-02-12T20:46:24.721Z,74.22
2023-02-12T20:49:29.346Z,81.05
2023-02-12T20:52:33.725Z,79.13
2023-02-12T20:55:37.609Z,71.43
2023-02-12T20:58:45.494Z,110.15
2023-02-12T21:01:49.987Z,118.40
2023-02-12T21:04:56.933Z,136.15
2023-02-12T21:08:01.084Z,255.70
2023-02-12T21:11:20.290Z,89.05
2023-02-12T21:14:25.154Z,60.67
2023-02-12T21:17:29.585Z,82.95
2023-02-12T21:20:33.800Z,114.40
2023-02-12T21:23:38.590Z,133.73
2023-02-12T21:29:46.873Z,99.18
2023-02-12T21:32:51.984Z,65.32
2023-02-12T21:35:56.475Z,92.78
2023-02-12T21:39:01.837Z,76.90
2023-02-12T21:42:06.191Z,74.60
2023-02-12T21:45:10.990Z,83.35
2023-02-12T21:48:15.361Z,87.70
2023-02-12T21:51:23.853Z,95.95
2023-02-12T21:54:28.586Z,63.75
2023-02-12T21:57:33.314Z,53.45
2023-02-12T22:03:53.269Z,118.22
2023-02-12T22:07:00.442Z,130.65
2023-02-12T22:10:04.870Z,74.70
2023-02-12T22:13:09.089Z,197.25
2023-02-12T22:16:15.506Z,188.80
2023-02-12T22:19:19.867Z,179.23
2023-02-12T22:22:24.642Z,102.28
2023-02-12T22:28:41.874Z,114.63
2023-02-12T22:31:47.862Z,178.02
2023-02-12T22:34:52.349Z,73.00
2023-02-12T22:37:59.619Z,79.45
2023-02-12T22:41:07.304Z,133.65
2023-02-12T22:44:13.838Z,311.60
2023-02-12T22:47:18.324Z,293.35
2023-02-12T22:50:22.331Z,128.35
2023-02-12T22:53:27.098Z,93.00
2023-02-12T22:56:31.517Z,114.60
2023-02-12T22:59:35.616Z,98.13
2023-02-12T23:02:39.602Z,113.53
2023-02-12T23:05:44.017Z,152.57
2023-02-12T23:08:52.148Z,75.65
2023-02-12T23:11:56.701Z,65.32
2023-02-12T23:15:01.144Z,82.25
2023-02-12T23:21:10.933Z,114.72
2023-02-12T23:27:20.069Z,38.73
2023-02-12T23:30:24.452Z,220.02
2023-02-12T23:33:28.880Z,160.63
2023-02-12T23:36:33.909Z,120.50
2023-02-12T23:39:39.986Z,190.27
2023-02-12T23:42:44.427Z,121.97
2023-02-12T23:45:48.751Z,146.48
2023-02-12T23:48:53.019Z,169.05
2023-02-12T23:51:57.364Z,197.90
2023-02-12T23:55:01.630Z,180.95
2023-02-12T23:58:07.398Z,160.40
